sensor_id;sensor_type;location;lat;lon;timestamp;temperature;humidity
72604;DHT22;60645;56.968;24.196;2024-02-04T00:01:31;2.40;91.90
72604;DHT22;60645;56.968;24.196;2024-02-04T00:03:58;2.50;91.90
72604;DHT22;60645;56.968;24.196;2024-02-04T00:06:25;2.40;92.20
72604;DHT22;60645;56.968;24.196;2024-02-04T00:08:52;2.30;92.30
72604;DHT22;60645;56.968;24.196;2024-02-04T00:11:19;2.40;92.30
72604;DHT22;60645;56.968;24.196;2024-02-04T00:13:46;2.50;92.20
72604;DHT22;60645;56.968;24.196;2024-02-04T00:16:13;2.30;92.40
72604;DHT22;60645;56.968;24.196;2024-02-04T00:18:40;2.20;92.50
72604;DHT22;60645;56.968;24.196;2024-02-04T00:21:07;2.20;92.60
72604;DHT22;60645;56.968;24.196;2024-02-04T00:23:34;2.20;92.70
72604;DHT22;60645;56.968;24.196;2024-02-04T00:26:01;2.20;92.70
72604;DHT22;60645;56.968;24.196;2024-02-04T00:28:27;2.30;92.90
72604;DHT22;60645;56.968;24.196;2024-02-04T00:30:54;2.20;92.70
72604;DHT22;60645;56.968;24.196;2024-02-04T00:33:26;2.20;92.70
72604;DHT22;60645;56.968;24.196;2024-02-04T00:35:53;2.40;92.70
72604;DHT22;60645;56.968;24.196;2024-02-04T00:38:20;2.20;92.80
72604;DHT22;60645;56.968;24.196;2024-02-04T00:40:46;2.20;92.80
72604;DHT22;60645;56.968;24.196;2024-02-04T00:43:13;2.30;92.80
72604;DHT22;60645;56.968;24.196;2024-02-04T00:45:40;2.30;92.80
72604;DHT22;60645;56.968;24.196;2024-02-04T00:48:07;2.30;93.00
72604;DHT22;60645;56.968;24.196;2024-02-04T00:50:34;2.10;93.10
72604;DHT22;60645;56.968;24.196;2024-02-04T00:53:01;2.10;93.20
72604;DHT22;60645;56.968;24.196;2024-02-04T00:55:27;2.30;93.00
72604;DHT22;60645;56.968;24.196;2024-02-04T00:57:54;2.20;93.00
72604;DHT22;60645;56.968;24.196;2024-02-04T01:00:25;2.30;93.00
72604;DHT22;60645;56.968;24.196;2024-02-04T01:02:52;2.30;93.00
72604;DHT22;60645;56.968;24.196;2024-02-04T01:05:19;2.20;93.00
72604;DHT22;60645;56.968;24.196;2024-02-04T01:07:46;2.20;93.00
72604;DHT22;60645;56.968;24.196;2024-02-04T01:10:13;2.20;93.20
72604;DHT22;60645;56.968;24.196;2024-02-04T01:12:40;2.20;92.90
72604;DHT22;60645;56.968;24.196;2024-02-04T01:15:07;2.30;93.00
72604;DHT22;60645;56.968;24.196;2024-02-04T01:17:34;2.30;92.80
72604;DHT22;60645;56.968;24.196;2024-02-04T01:20:01;2.30;92.70
72604;DHT22;60645;56.968;24.196;2024-02-04T01:22:28;2.30;92.50
72604;DHT22;60645;56.968;24.196;2024-02-04T01:24:55;2.40;92.60
72604;DHT22;60645;56.968;24.196;2024-02-04T01:27:22;2.20;92.60
72604;DHT22;60645;56.968;24.196;2024-02-04T01:29:48;2.20;92.50
72604;DHT22;60645;56.968;24.196;2024-02-04T01:32:15;2.40;92.30
72604;DHT22;60645;56.968;24.196;2024-02-04T01:34:42;2.20;92.20
72604;DHT22;60645;56.968;24.196;2024-02-04T01:37:09;2.50;92.00
72604;DHT22;60645;56.968;24.196;2024-02-04T01:39:36;2.40;92.20
72604;DHT22;60645;56.968;24.196;2024-02-04T01:42:03;2.40;92.00
72604;DHT22;60645;56.968;24.196;2024-02-04T01:44:31;2.20;92.10
72604;DHT22;60645;56.968;24.196;2024-02-04T01:46:58;2.40;92.00
72604;DHT22;60645;56.968;24.196;2024-02-04T01:49:25;2.40;91.80
72604;DHT22;60645;56.968;24.196;2024-02-04T01:51:53;2.20;91.80
72604;DHT22;60645;56.968;24.196;2024-02-04T01:54:20;2.40;91.90
72604;DHT22;60645;56.968;24.196;2024-02-04T01:56:49;2.30;91.60
72604;DHT22;60645;56.968;24.196;2024-02-04T01:59:16;2.30;91.50
72604;DHT22;60645;56.968;24.196;2024-02-04T02:01:43;2.40;91.30
72604;DHT22;60645;56.968;24.196;2024-02-04T02:04:10;2.60;91.20
72604;DHT22;60645;56.968;24.196;2024-02-04T02:06:37;2.40;91.20
72604;DHT22;60645;56.968;24.196;2024-02-04T02:09:08;2.60;91.10
72604;DHT22;60645;56.968;24.196;2024-02-04T02:11:44;2.70;90.90
72604;DHT22;60645;56.968;24.196;2024-02-04T02:14:16;2.80;90.60
72604;DHT22;60645;56.968;24.196;2024-02-04T02:16:44;2.80;90.20
72604;DHT22;60645;56.968;24.196;2024-02-04T02:22:01;2.90;89.60
72604;DHT22;60645;56.968;24.196;2024-02-04T02:24:32;3.00;89.50
72604;DHT22;60645;56.968;24.196;2024-02-04T02:26:59;2.90;89.30
72604;DHT22;60645;56.968;24.196;2024-02-04T02:29:27;2.90;89.20
72604;DHT22;60645;56.968;24.196;2024-02-04T02:31:53;3.10;89.00
72604;DHT22;60645;56.968;24.196;2024-02-04T02:34:20;3.00;89.10
72604;DHT22;60645;56.968;24.196;2024-02-04T02:37:05;3.00;89.10
72604;DHT22;60645;56.968;24.196;2024-02-04T02:39:39;3.20;88.60
72604;DHT22;60645;56.968;24.196;2024-02-04T02:42:06;3.10;88.60
72604;DHT22;60645;56.968;24.196;2024-02-04T02:44:34;3.10;88.80
72604;DHT22;60645;56.968;24.196;2024-02-04T02:47:01;3.00;88.80
72604;DHT22;60645;56.968;24.196;2024-02-04T02:49:29;3.00;88.60
72604;DHT22;60645;56.968;24.196;2024-02-04T02:51:56;3.10;88.50
72604;DHT22;60645;56.968;24.196;2024-02-04T02:54:23;3.20;88.70
72604;DHT22;60645;56.968;24.196;2024-02-04T02:56:50;3.10;88.70
72604;DHT22;60645;56.968;24.196;2024-02-04T02:59:17;3.10;88.50
72604;DHT22;60645;56.968;24.196;2024-02-04T03:01:44;3.20;88.40
72604;DHT22;60645;56.968;24.196;2024-02-04T03:04:11;3.20;88.40
72604;DHT22;60645;56.968;24.196;2024-02-04T03:06:38;2.90;88.00
72604;DHT22;60645;56.968;24.196;2024-02-04T03:09:05;3.30;87.90
72604;DHT22;60645;56.968;24.196;2024-02-04T03:11:32;3.20;87.50
72604;DHT22;60645;56.968;24.196;2024-02-04T03:14:00;3.30;87.50
72604;DHT22;60645;56.968;24.196;2024-02-04T03:16:26;3.40;87.40
72604;DHT22;60645;56.968;24.196;2024-02-04T03:18:53;3.20;87.60
72604;DHT22;60645;56.968;24.196;2024-02-04T03:21:20;3.30;87.90
72604;DHT22;60645;56.968;24.196;2024-02-04T03:23:47;3.10;88.00
72604;DHT22;60645;56.968;24.196;2024-02-04T03:26:17;3.20;88.00
72604;DHT22;60645;56.968;24.196;2024-02-04T03:28:47;3.10;88.10
72604;DHT22;60645;56.968;24.196;2024-02-04T03:31:20;3.50;87.80
72604;DHT22;60645;56.968;24.196;2024-02-04T03:33:47;3.30;87.80
72604;DHT22;60645;56.968;24.196;2024-02-04T03:36:24;3.30;87.70
72604;DHT22;60645;56.968;24.196;2024-02-04T03:38:51;3.20;87.30
72604;DHT22;60645;56.968;24.196;2024-02-04T03:41:18;3.50;87.40
72604;DHT22;60645;56.968;24.196;2024-02-04T03:43:45;3.50;87.40
72604;DHT22;60645;56.968;24.196;2024-02-04T03:46:15;3.40;87.50
72604;DHT22;60645;56.968;24.196;2024-02-04T03:48:42;3.40;87.70
72604;DHT22;60645;56.968;24.196;2024-02-04T03:51:16;3.40;87.70
72604;DHT22;60645;56.968;24.196;2024-02-04T03:53:46;3.20;87.90
72604;DHT22;60645;56.968;24.196;2024-02-04T03:56:13;3.50;87.50
72604;DHT22;60645;56.968;24.196;2024-02-04T03:58:40;3.20;87.50
72604;DHT22;60645;56.968;24.196;2024-02-04T04:01:10;3.50;87.60
72604;DHT22;60645;56.968;24.196;2024-02-04T04:03:39;3.40;87.50
72604;DHT22;60645;56.968;24.196;2024-02-04T04:06:06;3.20;87.90
72604;DHT22;60645;56.968;24.196;2024-02-04T04:08:33;3.20;87.50
72604;DHT22;60645;56.968;24.196;2024-02-04T04:11:00;3.40;87.10
72604;DHT22;60645;56.968;24.196;2024-02-04T04:13:27;3.50;87.10
72604;DHT22;60645;56.968;24.196;2024-02-04T04:15:53;3.40;87.30
72604;DHT22;60645;56.968;24.196;2024-02-04T04:18:20;3.60;86.80
72604;DHT22;60645;56.968;24.196;2024-02-04T04:20:48;3.40;86.80
72604;DHT22;60645;56.968;24.196;2024-02-04T04:23:14;3.50;86.70
72604;DHT22;60645;56.968;24.196;2024-02-04T04:25:41;3.60;86.50
72604;DHT22;60645;56.968;24.196;2024-02-04T04:28:08;3.60;86.50
72604;DHT22;60645;56.968;24.196;2024-02-04T04:30:35;3.70;86.00
72604;DHT22;60645;56.968;24.196;2024-02-04T04:33:02;3.60;86.10
72604;DHT22;60645;56.968;24.196;2024-02-04T04:35:29;3.60;85.80
72604;DHT22;60645;56.968;24.196;2024-02-04T04:37:56;3.60;85.70
72604;DHT22;60645;56.968;24.196;2024-02-04T04:40:23;3.60;85.70
72604;DHT22;60645;56.968;24.196;2024-02-04T04:42:49;3.80;85.60
72604;DHT22;60645;56.968;24.196;2024-02-04T04:45:16;3.70;85.70
72604;DHT22;60645;56.968;24.196;2024-02-04T04:47:43;3.80;85.30
72604;DHT22;60645;56.968;24.196;2024-02-04T04:50:10;3.90;85.40
72604;DHT22;60645;56.968;24.196;2024-02-04T04:52:37;3.80;85.50
72604;DHT22;60645;56.968;24.196;2024-02-04T04:55:04;3.90;85.40
72604;DHT22;60645;56.968;24.196;2024-02-04T04:57:31;3.80;85.20
72604;DHT22;60645;56.968;24.196;2024-02-04T04:59:58;3.80;85.10
72604;DHT22;60645;56.968;24.196;2024-02-04T05:02:30;3.70;85.50
72604;DHT22;60645;56.968;24.196;2024-02-04T05:04:57;3.80;85.20
72604;DHT22;60645;56.968;24.196;2024-02-04T05:07:24;3.70;85.30
72604;DHT22;60645;56.968;24.196;2024-02-04T05:09:51;3.60;85.50
72604;DHT22;60645;56.968;24.196;2024-02-04T05:12:18;3.70;85.20
72604;DHT22;60645;56.968;24.196;2024-02-04T05:14:45;3.30;85.60
72604;DHT22;60645;56.968;24.196;2024-02-04T05:17:12;3.20;85.90
72604;DHT22;60645;56.968;24.196;2024-02-04T05:19:42;3.20;86.30
72604;DHT22;60645;56.968;24.196;2024-02-04T05:22:09;3.20;86.40
72604;DHT22;60645;56.968;24.196;2024-02-04T05:24:36;3.00;86.90
72604;DHT22;60645;56.968;24.196;2024-02-04T05:27:03;3.10;87.10
72604;DHT22;60645;56.968;24.196;2024-02-04T05:29:31;2.90;86.80
72604;DHT22;60645;56.968;24.196;2024-02-04T05:31:58;3.20;86.80
72604;DHT22;60645;56.968;24.196;2024-02-04T05:34:25;2.90;86.80
72604;DHT22;60645;56.968;24.196;2024-02-04T05:36:52;3.10;86.80
72604;DHT22;60645;56.968;24.196;2024-02-04T05:39:19;3.20;86.90
72604;DHT22;60645;56.968;24.196;2024-02-04T05:41:45;3.10;87.00
72604;DHT22;60645;56.968;24.196;2024-02-04T05:44:13;2.90;86.90
72604;DHT22;60645;56.968;24.196;2024-02-04T05:46:40;2.80;87.00
72604;DHT22;60645;56.968;24.196;2024-02-04T05:49:07;2.90;87.00
72604;DHT22;60645;56.968;24.196;2024-02-04T05:51:38;2.70;86.90
72604;DHT22;60645;56.968;24.196;2024-02-04T05:54:06;2.90;86.90
72604;DHT22;60645;56.968;24.196;2024-02-04T05:56:33;2.70;86.80
72604;DHT22;60645;56.968;24.196;2024-02-04T05:59:00;2.70;86.80
72604;DHT22;60645;56.968;24.196;2024-02-04T06:01:27;3.00;86.60
72604;DHT22;60645;56.968;24.196;2024-02-04T06:03:54;2.90;86.70
72604;DHT22;60645;56.968;24.196;2024-02-04T06:06:20;2.90;86.30
72604;DHT22;60645;56.968;24.196;2024-02-04T06:08:48;3.10;86.00
72604;DHT22;60645;56.968;24.196;2024-02-04T06:11:15;2.90;85.90
72604;DHT22;60645;56.968;24.196;2024-02-04T06:13:42;3.10;85.90
72604;DHT22;60645;56.968;24.196;2024-02-04T06:16:09;3.10;85.80
72604;DHT22;60645;56.968;24.196;2024-02-04T06:18:39;2.90;86.00
72604;DHT22;60645;56.968;24.196;2024-02-04T06:21:06;2.80;86.00
72604;DHT22;60645;56.968;24.196;2024-02-04T06:23:33;2.90;86.10
72604;DHT22;60645;56.968;24.196;2024-02-04T06:26:00;3.10;86.00
72604;DHT22;60645;56.968;24.196;2024-02-04T06:28:28;3.10;85.70
72604;DHT22;60645;56.968;24.196;2024-02-04T06:30:55;3.10;85.60
72604;DHT22;60645;56.968;24.196;2024-02-04T06:33:22;3.20;85.40
72604;DHT22;60645;56.968;24.196;2024-02-04T06:35:51;3.20;85.10
72604;DHT22;60645;56.968;24.196;2024-02-04T06:38:18;3.40;84.10
72604;DHT22;60645;56.968;24.196;2024-02-04T06:40:45;3.40;84.20
72604;DHT22;60645;56.968;24.196;2024-02-04T06:43:12;3.40;83.90
72604;DHT22;60645;56.968;24.196;2024-02-04T06:45:39;3.60;83.70
72604;DHT22;60645;56.968;24.196;2024-02-04T06:48:07;3.50;83.80
72604;DHT22;60645;56.968;24.196;2024-02-04T06:50:34;3.50;83.50
72604;DHT22;60645;56.968;24.196;2024-02-04T06:53:01;3.70;83.80
72604;DHT22;60645;56.968;24.196;2024-02-04T06:55:28;3.40;83.60
72604;DHT22;60645;56.968;24.196;2024-02-04T06:57:55;3.40;83.80
72604;DHT22;60645;56.968;24.196;2024-02-04T07:00:22;3.50;83.60
72604;DHT22;60645;56.968;24.196;2024-02-04T07:02:49;3.70;83.70
72604;DHT22;60645;56.968;24.196;2024-02-04T07:05:16;3.40;83.30
72604;DHT22;60645;56.968;24.196;2024-02-04T07:07:43;3.50;83.50
72604;DHT22;60645;56.968;24.196;2024-02-04T07:10:09;3.20;83.90
72604;DHT22;60645;56.968;24.196;2024-02-04T07:12:37;3.30;83.30
72604;DHT22;60645;56.968;24.196;2024-02-04T07:15:04;3.40;83.00
72604;DHT22;60645;56.968;24.196;2024-02-04T07:17:31;3.40;82.60
72604;DHT22;60645;56.968;24.196;2024-02-04T07:19:58;3.30;82.70
72604;DHT22;60645;56.968;24.196;2024-02-04T07:22:25;3.40;82.40
72604;DHT22;60645;56.968;24.196;2024-02-04T07:24:52;3.50;81.90
72604;DHT22;60645;56.968;24.196;2024-02-04T07:27:19;3.60;81.50
72604;DHT22;60645;56.968;24.196;2024-02-04T07:29:46;3.80;81.20
72604;DHT22;60645;56.968;24.196;2024-02-04T07:32:16;3.90;80.70
72604;DHT22;60645;56.968;24.196;2024-02-04T07:34:43;3.60;80.80
72604;DHT22;60645;56.968;24.196;2024-02-04T07:37:09;3.80;80.90
72604;DHT22;60645;56.968;24.196;2024-02-04T07:39:36;3.80;80.70
72604;DHT22;60645;56.968;24.196;2024-02-04T07:42:03;3.80;80.40
72604;DHT22;60645;56.968;24.196;2024-02-04T07:44:30;3.90;80.20
72604;DHT22;60645;56.968;24.196;2024-02-04T07:46:57;4.00;80.30
72604;DHT22;60645;56.968;24.196;2024-02-04T07:49:24;4.00;80.20
72604;DHT22;60645;56.968;24.196;2024-02-04T07:51:51;3.80;80.40
72604;DHT22;60645;56.968;24.196;2024-02-04T07:54:18;3.90;80.90
72604;DHT22;60645;56.968;24.196;2024-02-04T07:56:45;4.10;80.70
72604;DHT22;60645;56.968;24.196;2024-02-04T07:59:12;4.40;79.60
72604;DHT22;60645;56.968;24.196;2024-02-04T08:01:38;4.70;78.00
72604;DHT22;60645;56.968;24.196;2024-02-04T08:04:05;4.60;78.70
72604;DHT22;60645;56.968;24.196;2024-02-04T08:06:35;4.50;79.00
72604;DHT22;60645;56.968;24.196;2024-02-04T08:09:03;3.90;79.30
72604;DHT22;60645;56.968;24.196;2024-02-04T08:11:29;3.90;79.70
72604;DHT22;60645;56.968;24.196;2024-02-04T08:13:56;3.70;80.00
72604;DHT22;60645;56.968;24.196;2024-02-04T08:16:23;3.80;80.50
72604;DHT22;60645;56.968;24.196;2024-02-04T08:18:50;3.80;80.70
72604;DHT22;60645;56.968;24.196;2024-02-04T08:21:17;4.90;78.90
72604;DHT22;60645;56.968;24.196;2024-02-04T08:23:44;5.30;77.50
72604;DHT22;60645;56.968;24.196;2024-02-04T08:26:11;6.30;72.80
72604;DHT22;60645;56.968;24.196;2024-02-04T08:28:38;6.30;72.90
72604;DHT22;60645;56.968;24.196;2024-02-04T08:31:05;5.90;73.70
72604;DHT22;60645;56.968;24.196;2024-02-04T08:33:32;5.30;75.20
72604;DHT22;60645;56.968;24.196;2024-02-04T08:35:59;4.90;77.40
72604;DHT22;60645;56.968;24.196;2024-02-04T08:38:26;4.60;77.50
72604;DHT22;60645;56.968;24.196;2024-02-04T08:40:53;4.50;77.20
72604;DHT22;60645;56.968;24.196;2024-02-04T08:43:19;4.60;77.80
72604;DHT22;60645;56.968;24.196;2024-02-04T08:45:47;4.80;77.30
72604;DHT22;60645;56.968;24.196;2024-02-04T08:48:14;4.80;77.20
72604;DHT22;60645;56.968;24.196;2024-02-04T08:50:41;4.80;77.40
72604;DHT22;60645;56.968;24.196;2024-02-04T08:53:07;4.80;77.60
72604;DHT22;60645;56.968;24.196;2024-02-04T08:55:34;4.90;77.30
72604;DHT22;60645;56.968;24.196;2024-02-04T08:58:01;4.90;77.10
72604;DHT22;60645;56.968;24.196;2024-02-04T09:00:28;4.90;77.10
72604;DHT22;60645;56.968;24.196;2024-02-04T09:02:55;4.90;77.60
72604;DHT22;60645;56.968;24.196;2024-02-04T09:05:22;4.90;77.30
72604;DHT22;60645;56.968;24.196;2024-02-04T09:07:49;5.40;75.40
72604;DHT22;60645;56.968;24.196;2024-02-04T09:10:16;5.50;75.40
72604;DHT22;60645;56.968;24.196;2024-02-04T09:12:43;5.40;74.80
72604;DHT22;60645;56.968;24.196;2024-02-04T09:15:10;5.50;74.70
72604;DHT22;60645;56.968;24.196;2024-02-04T09:17:37;5.80;74.00
72604;DHT22;60645;56.968;24.196;2024-02-04T09:20:04;5.90;72.80
72604;DHT22;60645;56.968;24.196;2024-02-04T09:22:31;5.90;72.60
72604;DHT22;60645;56.968;24.196;2024-02-04T09:24:59;5.70;72.90
72604;DHT22;60645;56.968;24.196;2024-02-04T09:27:26;5.40;73.70
72604;DHT22;60645;56.968;24.196;2024-02-04T09:29:53;5.50;73.60
72604;DHT22;60645;56.968;24.196;2024-02-04T09:32:21;5.80;72.40
72604;DHT22;60645;56.968;24.196;2024-02-04T09:34:49;5.90;72.70
72604;DHT22;60645;56.968;24.196;2024-02-04T09:37:16;5.90;72.50
72604;DHT22;60645;56.968;24.196;2024-02-04T09:39:44;6.00;72.70
72604;DHT22;60645;56.968;24.196;2024-02-04T09:42:11;6.30;72.20
72604;DHT22;60645;56.968;24.196;2024-02-04T09:44:41;6.30;71.00
72604;DHT22;60645;56.968;24.196;2024-02-04T09:47:08;5.90;72.10
72604;DHT22;60645;56.968;24.196;2024-02-04T09:49:35;6.00;73.10
72604;DHT22;60645;56.968;24.196;2024-02-04T09:52:05;6.10;71.60
72604;DHT22;60645;56.968;24.196;2024-02-04T09:54:48;6.00;71.80
72604;DHT22;60645;56.968;24.196;2024-02-04T09:57:16;6.00;73.10
72604;DHT22;60645;56.968;24.196;2024-02-04T09:59:46;6.10;71.90
72604;DHT22;60645;56.968;24.196;2024-02-04T10:02:15;6.10;72.50
72604;DHT22;60645;56.968;24.196;2024-02-04T10:04:46;6.00;71.80
72604;DHT22;60645;56.968;24.196;2024-02-04T10:07:13;6.10;72.40
72604;DHT22;60645;56.968;24.196;2024-02-04T10:09:41;6.20;71.40
72604;DHT22;60645;56.968;24.196;2024-02-04T10:12:08;6.10;71.80
72604;DHT22;60645;56.968;24.196;2024-02-04T10:14:35;6.20;71.20
72604;DHT22;60645;56.968;24.196;2024-02-04T10:17:02;6.10;71.90
72604;DHT22;60645;56.968;24.196;2024-02-04T10:19:29;5.90;71.90
72604;DHT22;60645;56.968;24.196;2024-02-04T10:21:59;5.70;72.30
72604;DHT22;60645;56.968;24.196;2024-02-04T10:24:27;5.40;72.40
72604;DHT22;60645;56.968;24.196;2024-02-04T10:26:55;5.30;71.60
72604;DHT22;60645;56.968;24.196;2024-02-04T10:29:25;5.30;71.50
72604;DHT22;60645;56.968;24.196;2024-02-04T10:31:55;5.40;72.60
72604;DHT22;60645;56.968;24.196;2024-02-04T10:34:23;5.40;71.50
72604;DHT22;60645;56.968;24.196;2024-02-04T10:36:50;5.50;70.90
72604;DHT22;60645;56.968;24.196;2024-02-04T10:39:17;5.50;69.80
72604;DHT22;60645;56.968;24.196;2024-02-04T10:41:51;5.50;70.70
72604;DHT22;60645;56.968;24.196;2024-02-04T10:44:22;5.50;69.90
72604;DHT22;60645;56.968;24.196;2024-02-04T10:46:50;5.50;69.60
72604;DHT22;60645;56.968;24.196;2024-02-04T10:49:18;5.50;69.30
72604;DHT22;60645;56.968;24.196;2024-02-04T10:51:45;5.50;69.90
72604;DHT22;60645;56.968;24.196;2024-02-04T10:54:15;5.40;69.40
72604;DHT22;60645;56.968;24.196;2024-02-04T10:56:45;5.30;69.20
72604;DHT22;60645;56.968;24.196;2024-02-04T10:59:14;5.20;69.70
72604;DHT22;60645;56.968;24.196;2024-02-04T11:01:45;5.30;69.20
72604;DHT22;60645;56.968;24.196;2024-02-04T11:04:12;5.20;70.30
72604;DHT22;60645;56.968;24.196;2024-02-04T11:06:40;5.10;70.10
72604;DHT22;60645;56.968;24.196;2024-02-04T11:09:11;5.40;70.40
72604;DHT22;60645;56.968;24.196;2024-02-04T11:11:38;5.30;69.70
72604;DHT22;60645;56.968;24.196;2024-02-04T11:14:09;5.30;69.20
72604;DHT22;60645;56.968;24.196;2024-02-04T11:24:34;5.10;70.40
72604;DHT22;60645;56.968;24.196;2024-02-04T11:27:06;5.30;70.30
72604;DHT22;60645;56.968;24.196;2024-02-04T11:29:33;5.20;70.60
72604;DHT22;60645;56.968;24.196;2024-02-04T11:32:01;5.20;70.10
72604;DHT22;60645;56.968;24.196;2024-02-04T11:34:28;5.40;69.70
72604;DHT22;60645;56.968;24.196;2024-02-04T11:36:56;5.60;68.90
72604;DHT22;60645;56.968;24.196;2024-02-04T11:39:25;5.60;69.30
72604;DHT22;60645;56.968;24.196;2024-02-04T11:41:52;5.60;69.00
72604;DHT22;60645;56.968;24.196;2024-02-04T11:44:23;5.40;67.90
72604;DHT22;60645;56.968;24.196;2024-02-04T11:46:51;5.50;68.20
72604;DHT22;60645;56.968;24.196;2024-02-04T11:49:18;5.40;68.10
72604;DHT22;60645;56.968;24.196;2024-02-04T11:51:46;5.20;67.30
72604;DHT22;60645;56.968;24.196;2024-02-04T11:54:15;5.30;66.70
72604;DHT22;60645;56.968;24.196;2024-02-04T11:56:43;5.20;67.50
72604;DHT22;60645;56.968;24.196;2024-02-04T11:59:10;5.50;66.90
72604;DHT22;60645;56.968;24.196;2024-02-04T12:01:38;5.30;66.90
72604;DHT22;60645;56.968;24.196;2024-02-04T12:04:09;5.50;65.80
72604;DHT22;60645;56.968;24.196;2024-02-04T12:06:37;5.40;65.50
72604;DHT22;60645;56.968;24.196;2024-02-04T12:09:05;5.60;66.00
72604;DHT22;60645;56.968;24.196;2024-02-04T12:11:34;5.50;64.90
72604;DHT22;60645;56.968;24.196;2024-02-04T12:14:01;5.30;64.80
72604;DHT22;60645;56.968;24.196;2024-02-04T12:16:29;5.50;65.10
72604;DHT22;60645;56.968;24.196;2024-02-04T12:18:57;5.30;64.50
72604;DHT22;60645;56.968;24.196;2024-02-04T12:21:25;5.60;64.00
72604;DHT22;60645;56.968;24.196;2024-02-04T12:23:52;5.40;65.00
72604;DHT22;60645;56.968;24.196;2024-02-04T12:26:19;5.60;63.60
72604;DHT22;60645;56.968;24.196;2024-02-04T12:28:45;5.40;64.30
72604;DHT22;60645;56.968;24.196;2024-02-04T12:31:19;5.60;64.00
72604;DHT22;60645;56.968;24.196;2024-02-04T12:33:56;5.70;64.90
72604;DHT22;60645;56.968;24.196;2024-02-04T12:36:30;5.60;66.20
72604;DHT22;60645;56.968;24.196;2024-02-04T12:39:00;5.70;64.40
72604;DHT22;60645;56.968;24.196;2024-02-04T12:41:28;5.60;65.20
72604;DHT22;60645;56.968;24.196;2024-02-04T12:43:57;5.40;66.00
72604;DHT22;60645;56.968;24.196;2024-02-04T12:46:24;5.40;66.50
72604;DHT22;60645;56.968;24.196;2024-02-04T12:48:52;5.50;67.00
72604;DHT22;60645;56.968;24.196;2024-02-04T12:51:30;5.40;65.80
72604;DHT22;60645;56.968;24.196;2024-02-04T12:54:04;5.30;66.40
72604;DHT22;60645;56.968;24.196;2024-02-04T12:59:10;5.20;66.00
72604;DHT22;60645;56.968;24.196;2024-02-04T13:01:37;5.20;67.00
72604;DHT22;60645;56.968;24.196;2024-02-04T13:04:05;5.30;67.30
72604;DHT22;60645;56.968;24.196;2024-02-04T13:06:37;5.30;68.10
72604;DHT22;60645;56.968;24.196;2024-02-04T13:09:04;5.30;68.20
72604;DHT22;60645;56.968;24.196;2024-02-04T13:11:32;5.30;67.80
72604;DHT22;60645;56.968;24.196;2024-02-04T13:13:59;5.30;68.40
72604;DHT22;60645;56.968;24.196;2024-02-04T13:16:26;5.10;69.00
72604;DHT22;60645;56.968;24.196;2024-02-04T13:18:54;5.30;69.00
72604;DHT22;60645;56.968;24.196;2024-02-04T13:21:21;5.10;68.70
72604;DHT22;60645;56.968;24.196;2024-02-04T13:23:50;5.00;69.40
72604;DHT22;60645;56.968;24.196;2024-02-04T13:26:16;5.10;69.10
72604;DHT22;60645;56.968;24.196;2024-02-04T13:28:44;5.10;69.80
72604;DHT22;60645;56.968;24.196;2024-02-04T13:31:10;5.20;69.60
72604;DHT22;60645;56.968;24.196;2024-02-04T13:33:38;5.10;69.90
72604;DHT22;60645;56.968;24.196;2024-02-04T13:36:07;5.20;70.50
72604;DHT22;60645;56.968;24.196;2024-02-04T13:38:35;5.00;71.10
72604;DHT22;60645;56.968;24.196;2024-02-04T13:41:02;5.00;71.20
72604;DHT22;60645;56.968;24.196;2024-02-04T13:43:31;4.90;71.30
72604;DHT22;60645;56.968;24.196;2024-02-04T13:45:57;4.90;71.40
72604;DHT22;60645;56.968;24.196;2024-02-04T13:48:24;4.80;72.20
72604;DHT22;60645;56.968;24.196;2024-02-04T13:50:52;4.60;71.20
72604;DHT22;60645;56.968;24.196;2024-02-04T13:53:20;4.60;72.30
72604;DHT22;60645;56.968;24.196;2024-02-04T13:55:48;4.50;72.10
72604;DHT22;60645;56.968;24.196;2024-02-04T13:58:15;4.40;72.80
72604;DHT22;60645;56.968;24.196;2024-02-04T14:00:45;4.40;72.50
72604;DHT22;60645;56.968;24.196;2024-02-04T14:03:12;4.60;74.10
72604;DHT22;60645;56.968;24.196;2024-02-04T14:05:40;4.50;73.30
72604;DHT22;60645;56.968;24.196;2024-02-04T14:08:07;4.30;73.80
72604;DHT22;60645;56.968;24.196;2024-02-04T14:10:34;4.30;74.40
72604;DHT22;60645;56.968;24.196;2024-02-04T14:13:01;4.30;74.40
72604;DHT22;60645;56.968;24.196;2024-02-04T14:15:28;4.20;75.40
72604;DHT22;60645;56.968;24.196;2024-02-04T14:17:55;4.30;76.40
72604;DHT22;60645;56.968;24.196;2024-02-04T14:20:22;4.10;77.00
72604;DHT22;60645;56.968;24.196;2024-02-04T14:22:49;4.10;77.40
72604;DHT22;60645;56.968;24.196;2024-02-04T14:25:17;4.10;77.40
72604;DHT22;60645;56.968;24.196;2024-02-04T14:27:44;4.20;78.00
72604;DHT22;60645;56.968;24.196;2024-02-04T14:30:11;4.10;78.10
72604;DHT22;60645;56.968;24.196;2024-02-04T14:32:38;4.10;78.70
72604;DHT22;60645;56.968;24.196;2024-02-04T14:35:05;4.00;79.10
72604;DHT22;60645;56.968;24.196;2024-02-04T14:37:34;4.00;79.40
72604;DHT22;60645;56.968;24.196;2024-02-04T14:40:02;4.10;79.90
72604;DHT22;60645;56.968;24.196;2024-02-04T14:42:31;4.10;80.00
72604;DHT22;60645;56.968;24.196;2024-02-04T14:44:57;4.10;80.40
72604;DHT22;60645;56.968;24.196;2024-02-04T14:47:27;4.00;80.70
72604;DHT22;60645;56.968;24.196;2024-02-04T14:49:54;4.10;81.20
72604;DHT22;60645;56.968;24.196;2024-02-04T14:52:21;3.90;81.40
72604;DHT22;60645;56.968;24.196;2024-02-04T14:54:48;4.00;81.40
72604;DHT22;60645;56.968;24.196;2024-02-04T14:57:15;4.00;81.70
72604;DHT22;60645;56.968;24.196;2024-02-04T14:59:44;4.00;81.90
72604;DHT22;60645;56.968;24.196;2024-02-04T15:02:11;3.80;82.20
72604;DHT22;60645;56.968;24.196;2024-02-04T15:04:38;4.00;82.50
72604;DHT22;60645;56.968;24.196;2024-02-04T15:07:06;3.90;82.70
72604;DHT22;60645;56.968;24.196;2024-02-04T15:09:35;3.80;82.80
72604;DHT22;60645;56.968;24.196;2024-02-04T15:12:02;3.80;82.80
72604;DHT22;60645;56.968;24.196;2024-02-04T15:14:29;4.00;82.90
72604;DHT22;60645;56.968;24.196;2024-02-04T15:16:56;3.90;82.90
72604;DHT22;60645;56.968;24.196;2024-02-04T15:19:24;3.90;83.00
72604;DHT22;60645;56.968;24.196;2024-02-04T15:21:52;3.70;83.30
72604;DHT22;60645;56.968;24.196;2024-02-04T15:24:19;4.00;83.30
72604;DHT22;60645;56.968;24.196;2024-02-04T15:26:49;3.80;83.50
72604;DHT22;60645;56.968;24.196;2024-02-04T15:29:18;3.70;83.70
72604;DHT22;60645;56.968;24.196;2024-02-04T15:31:46;3.90;83.80
72604;DHT22;60645;56.968;24.196;2024-02-04T15:34:15;3.70;83.90
72604;DHT22;60645;56.968;24.196;2024-02-04T15:36:42;3.90;84.00
72604;DHT22;60645;56.968;24.196;2024-02-04T15:39:09;3.80;84.10
72604;DHT22;60645;56.968;24.196;2024-02-04T15:41:38;3.70;84.30
72604;DHT22;60645;56.968;24.196;2024-02-04T15:44:05;3.90;84.50
72604;DHT22;60645;56.968;24.196;2024-02-04T15:46:33;3.90;84.70